Impacts METAR Board INFO
IDs:

KCVG - Cincinnati Intl, KY, US

Updated at: 1318 UTC 25 Feb 2018
Potential Impact None Slight Moderate High
Time25/01Z 25/02Z 25/03Z 25/04Z 25/05Z 25/06Z 25/07Z 25/08Z 25/09Z 25/10Z 25/11Z 25/12Z 25/13Z
VIS4 2 3 2.5 5 6 10 10 10 10 10 10 10
CIG5 4 25 5 28 70 90 28 23 42 26 -- 55
CoverOVCOVCOVCOVCOVCOVCOVCOVCOVCBKNOVCSCTOVC
FltCatIFRLIFRMVFRIFRMVFRVFRVFRMVFRMVFRVFRMVFRVFRVFR
WX+RA BR+RA BRRA BR+RA BRRA BRRA BR-RA------------
WDir10090110240240170190210230260270290260
WSpd7 8 10 12 9 15 14 13 10 15 22 21 11
WGst-- -- -- 20 -- 19 -- -- 19 24 30 29 --
Raw hourly METARs
KCVG 250052Z 10007KT 4SM +RA BR OVC005 11/11 A2985 RMK AO2 RAE2356B02 SLP106 P0012 T01110106 $
KCVG 250152Z 09008KT 2SM +RA BR BKN004 BKN021 OVC029 11/11 A2980 RMK AO2 VIS 3/4 36R SLP091 P0038 T01110106 $
KCVG 250256Z 11010KT 3SM RA BR SCT020 BKN025 OVC034 12/12 A2975 RMK AO2 P0001 T01170117 $
KCVG 250352Z 24012G20KT 200V280 2 1/2SM R18C/4500VP6000FT +RA BR BKN005 BKN028 OVC040 12/12 A2975 RMK AO2 PRESRR SLP073 P0023 T01220122 $
KCVG 250454Z 24009KT 5SM RA BR FEW005 BKN028 OVC080 13/13 A2976 RMK AO2 CIG 008 36R P0000 T01330128 $
KCVG 250552Z 17015G19KT 6SM RA BR FEW005 BKN070 OVC080 14/13 A2971 RMK AO2 SLP059 P0019 60169 T01390133 10139 20111 58012 $
KCVG 250652Z 19014KT 10SM -RA FEW055 SCT070 OVC090 14/13 A2972 RMK AO2 SLP059 P0004 T01390133 $
KCVG 250752Z 21013KT 10SM BKN028 OVC110 15/13 A2969 RMK AO2 PK WND 17028/0702 RAE16 SLP050 P0002 T01500133 $
KCVG 250852Z 23010G19KT 10SM SCT015 OVC023 15/14 A2972 RMK AO2 PRESRR SLP062 60006 T01500139 53003 $
KCVG 250952Z 26015G24KT 10SM FEW022 SCT032 BKN042 15/11 A2974 RMK AO2 RAB0859E31 SLP067 P0003 T01500111 $
KCVG 251052Z 27022G30KT 10SM BKN026 BKN031 OVC070 13/09 A2982 RMK AO2 PK WND 27030/1049 SLP093 T01280094 $
KCVG 251152Z 29021G29KT 10SM FEW018 SCT055 10/07 A2987 RMK AO2 PK WND 28029/1143 PRESRR SLP114 60009 70241 T01000067 10156 20100 53049 $
KCVG 251252Z 26011KT 10SM FEW018 BKN055 OVC200 07/03 A2993 RMK AO2 PK WND 29030/1212 SLP135 T00720028 $